createdAt,value
2022-08-01T00:01:41.926Z,17.90
2022-08-01T00:04:09.960Z,17.80
2022-08-01T00:06:39.749Z,17.80
2022-08-01T00:09:07.837Z,17.80
2022-08-01T00:11:35.818Z,17.80
2022-08-01T00:14:03.790Z,17.90
2022-08-01T00:16:31.801Z,17.80
2022-08-01T00:19:00.042Z,17.70
2022-08-01T00:21:28.076Z,17.60
2022-08-01T00:23:57.723Z,17.70
2022-08-01T00:26:25.905Z,17.70
2022-08-01T00:28:53.841Z,17.80
2022-08-01T00:31:21.898Z,17.70
2022-08-01T00:33:49.926Z,17.70
2022-08-01T00:36:18.140Z,17.80
2022-08-01T00:38:46.133Z,17.70
2022-08-01T00:41:15.796Z,17.70
2022-08-01T00:43:43.799Z,17.60
2022-08-01T00:46:11.961Z,17.70
2022-08-01T00:48:40.234Z,17.70
2022-08-01T00:51:09.446Z,17.60
2022-08-01T00:53:51.352Z,17.60
2022-08-01T00:56:22.783Z,17.60
2022-08-01T00:58:50.738Z,17.60
2022-08-01T01:01:19.103Z,17.50
2022-08-01T01:04:02.813Z,17.50
2022-08-01T01:06:43.167Z,17.40
2022-08-01T01:09:17.550Z,17.40
2022-08-01T01:11:51.200Z,17.40
2022-08-01T01:14:26.730Z,17.40
2022-08-01T01:16:56.041Z,17.40
2022-08-01T01:19:26.981Z,17.40
2022-08-01T01:22:09.779Z,17.40
2022-08-01T01:24:42.138Z,17.30
2022-08-01T01:27:13.127Z,17.40
2022-08-01T01:29:58.600Z,17.40
2022-08-01T01:32:34.596Z,17.40
2022-08-01T01:35:04.421Z,17.20
2022-08-01T01:37:34.462Z,17.10
2022-08-01T01:40:03.843Z,17.20
2022-08-01T01:42:32.824Z,17.20
2022-08-01T01:45:02.580Z,17.10
2022-08-01T01:47:31.354Z,17.00
2022-08-01T01:50:00.373Z,17.00
2022-08-01T01:52:28.889Z,16.90
2022-08-01T01:55:00.736Z,16.90
2022-08-01T01:57:33.844Z,16.90
2022-08-01T02:00:03.349Z,16.80
2022-08-01T02:02:31.832Z,16.80
2022-08-01T02:05:00.460Z,16.70
2022-08-01T02:07:29.681Z,16.70
2022-08-01T02:09:58.822Z,16.70
2022-08-01T02:12:26.922Z,16.70
2022-08-01T02:14:55.542Z,16.70
2022-08-01T02:17:25.687Z,16.60
2022-08-01T02:19:55.854Z,16.70
2022-08-01T02:22:28.167Z,16.70
2022-08-01T02:24:57.608Z,16.60
2022-08-01T02:27:28.247Z,16.70
2022-08-01T02:30:00.679Z,16.70
2022-08-01T02:32:38.684Z,16.70
2022-08-01T02:35:09.362Z,16.60
2022-08-01T02:37:42.994Z,16.60
2022-08-01T02:40:18.486Z,16.50
2022-08-01T02:42:49.470Z,16.60
2022-08-01T02:45:20.147Z,16.50
2022-08-01T02:47:50.444Z,16.60
2022-08-01T02:50:20.088Z,16.60
2022-08-01T02:52:49.670Z,16.50
2022-08-01T02:55:19.205Z,16.40
2022-08-01T02:57:52.312Z,16.40
2022-08-01T03:00:24.840Z,16.50
2022-08-01T03:02:56.048Z,16.50
2022-08-01T03:05:24.960Z,16.40
2022-08-01T03:07:54.056Z,16.50
2022-08-01T03:10:22.800Z,16.50
2022-08-01T03:12:51.709Z,16.60
2022-08-01T03:15:20.234Z,16.50
2022-08-01T03:17:49.370Z,16.60
2022-08-01T03:20:19.345Z,16.50
2022-08-01T03:22:48.531Z,16.50
2022-08-01T03:25:17.363Z,16.50
2022-08-01T03:27:45.980Z,16.60
2022-08-01T03:30:16.605Z,16.60
2022-08-01T03:32:46.995Z,16.60
2022-08-01T03:35:19.930Z,16.70
2022-08-01T03:38:14.727Z,16.80
2022-08-01T03:40:42.161Z,16.80
2022-08-01T03:43:13.387Z,16.80
2022-08-01T03:45:42.538Z,16.90
2022-08-01T03:48:14.794Z,17.10
2022-08-01T03:50:44.069Z,17.10
2022-08-01T03:53:14.052Z,17.20
2022-08-01T03:55:44.273Z,17.30
2022-08-01T03:58:12.940Z,17.50
2022-08-01T04:00:47.084Z,17.60
2022-08-01T04:03:20.121Z,17.60
2022-08-01T04:05:50.343Z,17.70
2022-08-01T04:08:20.857Z,17.70
2022-08-01T04:10:50.524Z,17.60
2022-08-01T04:13:18.593Z,17.60
2022-08-01T04:15:46.650Z,17.80
2022-08-01T04:18:15.057Z,18.10
2022-08-01T04:20:43.340Z,17.80
2022-08-01T04:23:12.358Z,17.80
2022-08-01T04:25:43.681Z,17.80
2022-08-01T04:28:17.244Z,17.80
2022-08-01T04:30:47.201Z,17.80
2022-08-01T04:33:17.377Z,17.60
2022-08-01T04:36:03.808Z,17.60
2022-08-01T04:38:34.244Z,17.70
2022-08-01T04:41:09.287Z,17.60
2022-08-01T04:43:38.249Z,17.60
2022-08-01T04:46:07.825Z,17.50
2022-08-01T04:48:38.274Z,17.40
2022-08-01T04:51:06.308Z,17.30
2022-08-01T04:53:34.535Z,17.40
2022-08-01T04:56:05.442Z,17.40
2022-08-01T04:58:33.454Z,17.40
2022-08-01T05:01:01.508Z,17.40
2022-08-01T05:03:29.535Z,17.40
2022-08-01T05:05:57.564Z,17.60
2022-08-01T05:08:25.743Z,17.80
2022-08-01T05:10:54.095Z,18.00
2022-08-01T05:13:23.558Z,18.10
2022-08-01T05:15:51.543Z,18.40
2022-08-01T05:18:27.899Z,18.60
2022-08-01T05:20:59.824Z,18.90
2022-08-01T05:23:42.421Z,18.90
2022-08-01T05:26:11.850Z,19.20
2022-08-01T05:28:44.603Z,18.90
2022-08-01T05:31:12.695Z,19.10
2022-08-01T05:33:40.716Z,19.20
2022-08-01T05:36:08.732Z,19.40
2022-08-01T05:38:36.778Z,19.50
2022-08-01T05:41:04.883Z,19.40
2022-08-01T05:43:36.726Z,19.50
2022-08-01T05:46:06.204Z,19.30
2022-08-01T05:48:34.263Z,19.40
2022-08-01T05:51:02.561Z,19.60
2022-08-01T05:53:30.814Z,19.90
2022-08-01T05:56:04.203Z,20.10
2022-08-01T05:58:33.004Z,20.20
2022-08-01T06:01:00.985Z,20.40
2022-08-01T06:03:32.366Z,20.50
2022-08-01T06:06:00.471Z,20.60
2022-08-01T06:08:28.555Z,20.50
2022-08-01T06:10:57.043Z,20.60
2022-08-01T06:13:25.150Z,20.70
2022-08-01T06:15:53.246Z,21.00
2022-08-01T06:18:22.149Z,21.00
2022-08-01T06:20:53.551Z,21.00
2022-08-01T06:23:31.884Z,21.30
2022-08-01T06:26:00.850Z,21.30
2022-08-01T06:28:28.868Z,21.30
2022-08-01T06:30:57.166Z,21.20
2022-08-01T06:33:25.502Z,21.20
2022-08-01T06:35:54.950Z,21.60
2022-08-01T06:38:23.037Z,21.60
2022-08-01T06:40:51.143Z,21.60
2022-08-01T06:43:20.184Z,21.60
2022-08-01T06:45:53.022Z,21.90
2022-08-01T06:48:21.138Z,22.30
2022-08-01T06:50:49.378Z,22.70
2022-08-01T06:53:18.927Z,22.50
2022-08-01T06:55:46.974Z,22.50
2022-08-01T06:58:16.079Z,22.30
2022-08-01T07:00:44.313Z,22.20
2022-08-01T07:03:12.362Z,22.30
2022-08-01T07:05:40.384Z,22.40
2022-08-01T07:08:09.580Z,22.40
2022-08-01T07:10:41.718Z,22.10
2022-08-01T07:13:09.751Z,22.40
2022-08-01T07:15:40.324Z,22.40
2022-08-01T07:18:09.372Z,21.90
2022-08-01T07:20:41.295Z,21.90
2022-08-01T07:23:18.796Z,21.80
2022-08-01T07:25:55.875Z,22.10
2022-08-01T07:28:26.420Z,22.30
2022-08-01T07:30:55.661Z,22.30
2022-08-01T07:33:24.087Z,22.10
2022-08-01T07:35:52.190Z,22.00
2022-08-01T07:38:20.165Z,22.20
2022-08-01T07:40:48.190Z,22.40
2022-08-01T07:43:20.067Z,22.50
2022-08-01T07:45:48.394Z,22.00
2022-08-01T07:48:18.890Z,21.90
2022-08-01T07:50:49.037Z,22.20
2022-08-01T07:53:17.199Z,21.80
2022-08-01T07:55:46.109Z,21.90
2022-08-01T07:58:15.561Z,22.10
2022-08-01T08:00:48.313Z,22.20
2022-08-01T08:03:19.001Z,22.10
2022-08-01T08:05:57.930Z,21.60
2022-08-01T08:08:28.515Z,21.10
2022-08-01T08:10:56.499Z,21.10
2022-08-01T08:13:24.580Z,21.00
2022-08-01T08:15:54.299Z,21.30
2022-08-01T08:18:24.810Z,21.50
2022-08-01T08:20:52.917Z,21.50
2022-08-01T08:23:43.308Z,21.40
2022-08-01T08:26:12.170Z,21.60
2022-08-01T08:28:40.822Z,21.60
2022-08-01T08:31:24.873Z,21.50
2022-08-01T08:33:54.013Z,21.60
2022-08-01T08:36:22.144Z,21.30
2022-08-01T08:39:01.447Z,21.40
2022-08-01T08:41:37.598Z,21.30
2022-08-01T08:44:10.546Z,21.10
2022-08-01T08:46:42.662Z,21.00
2022-08-01T08:49:11.898Z,21.00
2022-08-01T08:51:43.381Z,21.10
2022-08-01T08:54:13.803Z,21.00
2022-08-01T08:56:42.498Z,21.10
2022-08-01T08:59:11.029Z,21.00
2022-08-01T09:01:44.050Z,21.00
2022-08-01T09:04:12.416Z,21.00
2022-08-01T09:06:41.056Z,21.00
2022-08-01T09:09:20.090Z,20.80
2022-08-01T09:11:57.097Z,20.80
2022-08-01T09:14:30.667Z,21.00
2022-08-01T09:17:07.795Z,20.90
2022-08-01T09:19:41.995Z,21.10
2022-08-01T09:22:11.397Z,21.00
2022-08-01T09:24:40.985Z,21.10
2022-08-01T09:27:22.278Z,21.10
2022-08-01T09:30:01.587Z,21.10
2022-08-01T09:32:36.359Z,21.30
2022-08-01T09:35:19.846Z,21.10
2022-08-01T09:37:48.522Z,21.00
2022-08-01T09:40:16.629Z,20.90
2022-08-01T09:42:44.675Z,21.00
2022-08-01T09:45:41.557Z,20.80
2022-08-01T09:48:14.387Z,21.00
2022-08-01T09:50:43.928Z,20.90
2022-08-01T09:53:24.421Z,21.10
2022-08-01T09:56:10.804Z,20.90
2022-08-01T09:58:57.782Z,20.90
2022-08-01T10:01:26.833Z,20.60
2022-08-01T10:04:10.954Z,20.90
2022-08-01T10:06:41.540Z,20.90
2022-08-01T10:09:10.005Z,20.80
2022-08-01T10:11:40.229Z,20.90
2022-08-01T10:14:09.185Z,21.40
2022-08-01T10:16:38.433Z,21.40
2022-08-01T10:19:11.354Z,21.40
2022-08-01T10:21:56.601Z,21.80
2022-08-01T10:24:28.902Z,21.70
2022-08-01T10:27:07.973Z,21.80
2022-08-01T10:29:46.793Z,21.70
2022-08-01T10:32:28.836Z,21.70
2022-08-01T10:34:59.493Z,21.90
2022-08-01T10:37:52.441Z,21.90
2022-08-01T10:40:37.014Z,21.90
2022-08-01T10:43:05.209Z,21.80
2022-08-01T10:45:34.446Z,21.40
2022-08-01T10:48:06.770Z,21.40
2022-08-01T10:50:37.599Z,21.30
2022-08-01T10:53:15.216Z,21.70
2022-08-01T10:55:52.095Z,20.90
2022-08-01T10:58:27.514Z,21.30
2022-08-01T11:01:14.480Z,21.30
2022-08-01T11:03:57.577Z,21.60
2022-08-01T11:06:46.356Z,21.60
2022-08-01T11:09:36.221Z,21.30
2022-08-01T11:12:23.588Z,20.70
2022-08-01T11:15:12.070Z,21.30
2022-08-01T11:17:43.000Z,21.20
2022-08-01T11:20:13.085Z,21.20
2022-08-01T11:23:00.523Z,20.90
2022-08-01T11:26:06.061Z,20.90
2022-08-01T11:28:40.580Z,20.70
2022-08-01T11:31:30.926Z,20.30
2022-08-01T11:34:10.212Z,20.30
2022-08-01T11:39:29.758Z,20.50
2022-08-01T11:42:21.982Z,20.20
2022-08-01T11:44:52.438Z,19.80
2022-08-01T11:47:21.687Z,19.70
2022-08-01T11:49:59.380Z,19.70
2022-08-01T11:52:28.598Z,19.60
2022-08-01T11:54:59.202Z,19.70
2022-08-01T11:57:34.002Z,19.80
2022-08-01T12:00:07.086Z,19.70
2022-08-01T12:02:37.649Z,19.70
2022-08-01T12:05:11.816Z,19.60
2022-08-01T12:07:43.350Z,19.60
2022-08-01T12:10:13.977Z,19.70
2022-08-01T12:12:46.973Z,19.70
2022-08-01T12:15:15.318Z,19.70
2022-08-01T12:17:57.315Z,19.70
2022-08-01T12:20:32.044Z,19.60
2022-08-01T12:23:02.420Z,19.50
2022-08-01T12:25:30.955Z,19.40
2022-08-01T12:28:03.608Z,19.40
2022-08-01T12:30:36.330Z,19.30
2022-08-01T12:33:05.492Z,19.20
2022-08-01T12:35:33.623Z,19.10
2022-08-01T12:38:02.696Z,19.10
2022-08-01T12:40:34.265Z,19.20
2022-08-01T12:43:04.708Z,18.90
2022-08-01T12:45:35.392Z,18.70
2022-08-01T12:48:04.639Z,18.80
2022-08-01T12:50:34.182Z,18.80
2022-08-01T12:53:03.059Z,18.90
2022-08-01T12:55:34.385Z,18.70
2022-08-01T12:58:10.428Z,18.80
2022-08-01T13:00:46.782Z,18.80
2022-08-01T13:03:16.500Z,18.70
2022-08-01T13:05:52.726Z,18.80
2022-08-01T13:08:21.904Z,18.90
2022-08-01T13:10:50.185Z,18.90
2022-08-01T13:13:27.682Z,19.00
2022-08-01T13:16:05.622Z,19.00
2022-08-01T13:18:37.441Z,19.10
2022-08-01T13:21:13.030Z,19.30
2022-08-01T13:24:00.596Z,19.30
2022-08-01T13:26:42.624Z,19.20
2022-08-01T13:29:15.426Z,19.40
2022-08-01T13:31:44.269Z,19.40
2022-08-01T13:34:12.684Z,19.40
2022-08-01T13:36:46.988Z,19.40
2022-08-01T13:39:38.857Z,19.50
2022-08-01T13:42:07.686Z,19.60
2022-08-01T13:44:37.357Z,19.70
2022-08-01T13:47:14.990Z,19.50
2022-08-01T13:49:44.053Z,19.80
2022-08-01T13:52:12.131Z,19.50
2022-08-01T13:54:40.269Z,19.40
2022-08-01T13:57:08.305Z,19.50
2022-08-01T13:59:37.831Z,19.30
2022-08-01T14:02:06.454Z,19.10
2022-08-01T14:04:34.769Z,19.10
2022-08-01T14:07:09.602Z,19.10
2022-08-01T14:09:44.825Z,19.00
2022-08-01T14:12:13.347Z,19.00
2022-08-01T14:14:42.837Z,18.90
2022-08-01T14:17:11.542Z,18.70
2022-08-01T14:19:42.307Z,18.60
2022-08-01T14:22:14.097Z,18.50
2022-08-01T14:24:42.136Z,18.70
2022-08-01T14:27:12.293Z,18.90
2022-08-01T14:30:00.324Z,18.80
2022-08-01T14:32:30.105Z,18.40
2022-08-01T14:34:58.270Z,18.40
2022-08-01T14:37:29.204Z,18.30
2022-08-01T14:40:01.614Z,18.40
2022-08-01T14:42:31.322Z,18.40
2022-08-01T14:44:59.379Z,18.40
2022-08-01T14:47:27.415Z,18.40
2022-08-01T14:49:56.858Z,18.60
2022-08-01T14:52:24.851Z,18.80
2022-08-01T14:54:52.973Z,18.90
2022-08-01T14:57:20.979Z,19.10
2022-08-01T14:59:51.377Z,19.20
2022-08-01T15:02:20.069Z,19.00
2022-08-01T15:04:48.462Z,19.40
2022-08-01T15:07:20.602Z,19.70
2022-08-01T15:09:48.616Z,19.60
2022-08-01T15:12:16.767Z,19.70
2022-08-01T15:14:50.494Z,19.80
2022-08-01T15:17:18.825Z,19.70
2022-08-01T15:19:48.713Z,20.00
2022-08-01T15:22:18.780Z,20.20
2022-08-01T15:24:46.810Z,20.20
2022-08-01T15:27:14.907Z,19.90
2022-08-01T15:29:42.916Z,19.90
2022-08-01T15:32:11.652Z,20.00
2022-08-01T15:34:40.356Z,20.30
2022-08-01T15:37:08.640Z,20.30
2022-08-01T15:39:38.742Z,20.40
2022-08-01T15:42:08.052Z,20.40
2022-08-01T15:44:36.434Z,20.20
2022-08-01T15:47:05.201Z,20.20
2022-08-01T15:49:37.017Z,20.30
2022-08-01T15:52:05.777Z,20.30
2022-08-01T15:54:34.004Z,20.20
2022-08-01T15:57:03.440Z,20.10
2022-08-01T15:59:31.679Z,20.20
2022-08-01T16:01:59.840Z,20.30
2022-08-01T16:04:29.842Z,20.20
2022-08-01T16:06:58.382Z,20.40
2022-08-01T16:09:27.122Z,20.40
2022-08-01T16:11:55.216Z,20.40
2022-08-01T16:14:24.951Z,20.30
2022-08-01T16:16:55.094Z,20.40
2022-08-01T16:19:24.272Z,20.20
2022-08-01T16:21:53.134Z,20.20
2022-08-01T16:24:21.150Z,20.30
2022-08-01T16:26:49.247Z,20.10
2022-08-01T16:29:17.230Z,20.00
2022-08-01T16:32:00.086Z,19.90
2022-08-01T16:34:34.880Z,19.90
2022-08-01T16:37:04.679Z,19.70
2022-08-01T16:39:35.871Z,19.70
2022-08-01T16:42:06.951Z,19.90
2022-08-01T16:44:35.406Z,20.10
2022-08-01T16:47:05.994Z,20.10
2022-08-01T16:49:35.823Z,20.10
2022-08-01T16:52:04.210Z,20.20
2022-08-01T16:54:32.397Z,20.20
2022-08-01T16:57:08.817Z,20.20
2022-08-01T16:59:41.598Z,20.10
2022-08-01T17:02:12.244Z,20.20
2022-08-01T17:04:40.330Z,20.20
2022-08-01T17:07:08.790Z,20.30
2022-08-01T17:09:42.789Z,20.30
2022-08-01T17:12:21.960Z,19.80
2022-08-01T17:14:51.045Z,19.70
2022-08-01T17:17:23.607Z,19.80
2022-08-01T17:19:54.969Z,19.70
2022-08-01T17:22:23.212Z,19.70
2022-08-01T17:24:52.442Z,19.90
2022-08-01T17:27:23.159Z,19.70
2022-08-01T17:29:53.611Z,19.60
2022-08-01T17:32:22.985Z,19.50
2022-08-01T17:34:53.731Z,19.40
2022-08-01T17:37:21.741Z,19.40
2022-08-01T17:39:50.106Z,19.70
2022-08-01T17:42:20.617Z,19.70
2022-08-01T17:44:49.075Z,19.80
2022-08-01T17:47:48.131Z,20.00
2022-08-01T17:50:13.288Z,20.20
2022-08-01T17:52:41.753Z,20.00
2022-08-01T17:55:55.893Z,20.00
2022-08-01T17:58:00.849Z,19.70
2022-08-01T18:00:29.015Z,19.70
2022-08-01T18:02:57.038Z,20.00
2022-08-01T18:05:36.880Z,19.90
2022-08-01T18:08:06.933Z,19.90
2022-08-01T18:10:40.066Z,19.80
2022-08-01T18:13:08.662Z,19.70
2022-08-01T18:15:37.902Z,19.70
2022-08-01T18:18:06.247Z,19.60
2022-08-01T18:20:36.903Z,19.60
2022-08-01T18:23:09.975Z,19.70
2022-08-01T18:25:38.035Z,19.80
2022-08-01T18:28:22.710Z,19.70
2022-08-01T18:30:58.234Z,19.70
2022-08-01T18:33:29.121Z,19.60
2022-08-01T18:36:01.902Z,19.60
2022-08-01T18:38:33.120Z,19.60
2022-08-01T18:41:01.758Z,19.60
2022-08-01T18:43:31.414Z,19.40
2022-08-01T18:46:01.338Z,19.40
2022-08-01T18:48:29.710Z,19.50
2022-08-01T18:51:00.857Z,19.40
2022-08-01T18:53:29.496Z,19.30
2022-08-01T18:55:57.710Z,19.40
2022-08-01T18:58:25.935Z,19.30
2022-08-01T19:00:54.359Z,19.40
2022-08-01T19:03:24.395Z,19.50
2022-08-01T19:05:52.769Z,19.50
2022-08-01T19:08:24.005Z,19.50
2022-08-01T19:10:52.079Z,19.40
2022-08-01T19:13:20.837Z,19.30
2022-08-01T19:15:49.149Z,19.30
2022-08-01T19:18:17.482Z,19.40
2022-08-01T19:20:46.040Z,19.30
2022-08-01T19:23:31.909Z,19.30
2022-08-01T19:26:04.100Z,19.10
2022-08-01T19:28:37.200Z,19.20
2022-08-01T19:31:06.758Z,19.20
2022-08-01T19:33:40.721Z,19.20
2022-08-01T19:36:09.562Z,19.20
2022-08-01T19:38:38.326Z,19.20
2022-08-01T19:41:09.441Z,19.20
2022-08-01T19:43:44.785Z,19.30
2022-08-01T19:46:17.428Z,19.10
2022-08-01T19:48:53.050Z,19.10
2022-08-01T19:51:33.235Z,19.10
2022-08-01T19:54:04.681Z,19.00
2022-08-01T19:56:37.452Z,19.10
2022-08-01T19:59:08.209Z,19.10
2022-08-01T20:01:39.411Z,19.10
2022-08-01T20:04:07.764Z,19.10
2022-08-01T20:06:36.360Z,19.10
2022-08-01T20:09:05.508Z,19.00
2022-08-01T20:11:35.211Z,19.00
2022-08-01T20:14:03.460Z,19.10
2022-08-01T20:16:33.319Z,19.10
2022-08-01T20:19:06.369Z,19.00
2022-08-01T20:21:34.895Z,19.00
2022-08-01T20:24:03.856Z,18.90
2022-08-01T20:26:32.902Z,18.90
2022-08-01T20:29:03.769Z,18.80
2022-08-01T20:31:33.983Z,18.80
2022-08-01T20:34:16.080Z,18.90
2022-08-01T20:36:54.388Z,18.80
2022-08-01T20:39:24.968Z,18.70
2022-08-01T20:41:59.708Z,18.70
2022-08-01T20:44:32.573Z,18.60
2022-08-01T20:47:05.399Z,18.60
2022-08-01T20:49:39.516Z,18.60
2022-08-01T20:52:11.851Z,18.60
2022-08-01T20:54:40.863Z,18.60
2022-08-01T20:57:15.706Z,18.60
2022-08-01T20:59:55.735Z,18.60
2022-08-01T21:02:30.058Z,18.70
2022-08-01T21:05:04.779Z,18.60
2022-08-01T21:07:34.595Z,18.70
2022-08-01T21:10:08.046Z,18.60
2022-08-01T21:12:52.622Z,18.50
2022-08-01T21:15:26.632Z,18.40
2022-08-01T21:18:02.028Z,18.40
2022-08-01T21:23:33.558Z,18.40
2022-08-01T21:26:02.071Z,18.50
2022-08-01T21:28:30.126Z,18.40
2022-08-01T21:31:00.522Z,18.30
2022-08-01T21:33:29.658Z,18.30
2022-08-01T21:36:12.565Z,18.30
2022-08-01T21:38:41.940Z,18.20
2022-08-01T21:41:10.078Z,18.30
2022-08-01T21:43:39.070Z,18.30
2022-08-01T21:46:10.124Z,18.20
2022-08-01T21:48:38.863Z,18.20
2022-08-01T21:51:22.164Z,18.20
2022-08-01T21:54:07.101Z,18.20
2022-08-01T21:56:43.277Z,18.20
2022-08-01T21:59:15.471Z,18.10
2022-08-01T22:01:53.203Z,18.00
2022-08-01T22:04:26.493Z,17.90
2022-08-01T22:06:55.579Z,17.90
2022-08-01T22:09:24.925Z,17.90
2022-08-01T22:12:00.831Z,17.90
2022-08-01T22:14:31.136Z,17.90
2022-08-01T22:17:02.781Z,17.80
2022-08-01T22:19:44.340Z,17.80
2022-08-01T22:22:50.337Z,17.70
2022-08-01T22:25:05.148Z,17.70
2022-08-01T22:28:08.259Z,17.70
2022-08-01T22:30:22.107Z,17.70
2022-08-01T22:33:07.305Z,17.60
2022-08-01T22:35:42.061Z,17.60
2022-08-01T22:38:10.276Z,17.60
2022-08-01T22:40:41.002Z,17.60
2022-08-01T22:43:13.937Z,17.60
2022-08-01T22:45:51.681Z,17.50
2022-08-01T22:48:26.328Z,17.60
2022-08-01T22:50:57.742Z,17.50
2022-08-01T22:53:30.182Z,17.50
2022-08-01T22:55:59.660Z,17.30
2022-08-01T22:58:30.701Z,17.30
2022-08-01T23:01:01.331Z,17.30
2022-08-01T23:03:31.417Z,17.10
2022-08-01T23:06:04.000Z,17.10
2022-08-01T23:08:33.355Z,17.20
2022-08-01T23:11:01.919Z,17.10
2022-08-01T23:13:30.908Z,17.10
2022-08-01T23:16:00.317Z,17.10
2022-08-01T23:18:29.414Z,17.00
2022-08-01T23:20:59.867Z,17.00
2022-08-01T23:23:30.684Z,16.90
2022-08-01T23:26:00.240Z,16.90
2022-08-01T23:28:28.755Z,16.90
2022-08-01T23:30:57.001Z,16.80
2022-08-01T23:33:27.334Z,16.80
2022-08-01T23:35:55.430Z,16.80
2022-08-01T23:38:25.006Z,16.70
2022-08-01T23:40:53.011Z,16.50
2022-08-01T23:43:21.242Z,16.50
2022-08-01T23:46:04.429Z,16.40
2022-08-01T23:48:34.061Z,16.40
2022-08-01T23:51:02.411Z,16.20
2022-08-01T23:53:31.928Z,16.10
2022-08-01T23:56:01.734Z,16.00
2022-08-01T23:58:31.193Z,16.00
